Preview of NWS' New Version of Forecast
This preview is not operational and should not be used for support decisions.

Terminal Aerodrome Forecast (TAF)

Issued by National Weather Service (NWS)

                            
000
FTUS46 KMFR 171142
TAFRBG
TAF
KRBG 171142Z 1712/1812 33006KT P6SM SKC
     FM172000 35010G18KT P6SM SKC
     FM180400 36005KT P6SM SKC=